Time;durP1;ratioP1;P1;durP2;ratioP2;P2;SDS_P1;SDS_P2;PMS_P1;PMS_P2;Temp;Humidity;BMP_temperature;BMP_pressure;BME280_temperature;BME280_humidity;BME280_pressure;Samples;Min_cycle;Max_cycle;Signal;HPM_P1;HPM_P2
2023/10/22 00:02:08;;;;;;;;;7.33;2.00;;;;;13.96;81.68;99831.28;5037202;28;45237;-43
2023/10/22 00:04:34;;;;;;;;;1.67;1.67;;;;;13.97;81.40;99832.91;5027424;28;45346;-41
2023/10/22 00:06:59;;;;;;;;;4.67;2.33;;;;;13.98;81.47;99829.22;5016367;28;45335;-40
2023/10/22 00:09:24;;;;;;;;;3.33;1.00;;;;;13.99;81.45;99833.56;5017397;28;45267;-42
2023/10/22 00:11:50;;;;;;;;;4.00;2.67;;;;;14.00;81.42;99835.22;5017094;28;45340;-41
2023/10/22 00:14:15;;;;;;;;;2.00;2.00;;;;;14.00;81.36;99842.41;5017365;28;45222;-42
2023/10/22 00:16:40;;;;;;;;;3.00;3.00;;;;;14.03;80.95;99847.34;5017482;28;45428;-45
2023/10/22 00:19:06;;;;;;;;;5.00;1.33;;;;;14.02;80.98;99851.88;5016558;28;49095;-41
2023/10/22 00:21:32;;;;;;;;;4.00;1.33;;;;;14.02;80.29;99848.38;4998314;28;45420;-41
2023/10/22 00:23:57;;;;;;;;;4.33;2.00;;;;;13.99;80.60;99854.97;5017015;28;45347;-41
2023/10/22 00:26:23;;;;;;;;;2.67;2.33;;;;;14.01;80.70;99860.94;5017142;28;45409;-43
2023/10/22 00:28:48;;;;;;;;;3.00;2.00;;;;;13.98;80.24;99859.44;5016771;28;46266;-40
2023/10/22 00:31:13;;;;;;;;;2.00;2.00;;;;;13.95;80.17;99867.88;5016804;28;45321;-43
2023/10/22 00:33:39;;;;;;;;;1.33;0.67;;;;;13.99;80.51;99871.00;5016989;28;45488;-41
2023/10/22 00:36:04;;;;;;;;;1.00;1.00;;;;;14.00;80.36;99866.47;5016801;28;45375;-36
2023/10/22 00:38:30;;;;;;;;;5.00;2.00;;;;;13.98;80.46;99878.16;5016568;28;47048;-41
2023/10/22 00:40:55;;;;;;;;;4.33;1.00;;;;;13.97;79.90;99875.69;5016477;28;45436;-40
2023/10/22 00:43:20;;;;;;;;;3.00;1.00;;;;;13.97;80.51;99879.19;5016686;28;45415;-39
2023/10/22 00:45:46;;;;;;;;;5.00;2.00;;;;;13.96;80.50;99879.41;5016957;28;45345;-40
2023/10/22 00:48:12;;;;;;;;;4.00;2.67;;;;;13.96;79.89;99880.22;5016676;28;45425;-41
2023/10/22 00:50:40;;;;;;;;;1.67;1.00;;;;;14.00;80.11;99885.19;5016478;28;45378;-43
2023/10/22 00:53:07;;;;;;;;;2.33;2.00;;;;;13.99;79.53;99884.38;5016502;28;45406;-42
2023/10/22 00:55:39;;;;;;;;;2.67;1.00;;;;;13.97;79.52;99881.88;5016647;28;45411;-42
2023/10/22 00:58:05;;;;;;;;;3.67;2.00;;;;;13.98;79.67;99880.03;5016330;28;45491;-43
2023/10/22 01:00:31;;;;;;;;;5.00;2.67;;;;;13.96;79.86;99885.56;5016523;28;45249;-41
2023/10/22 01:02:57;;;;;;;;;4.33;1.33;;;;;13.94;79.66;99881.41;5016411;28;45523;-41
2023/10/22 01:05:22;;;;;;;;;3.67;0.67;;;;;13.92;79.25;99894.97;5032645;28;45384;-43
2023/10/22 01:07:47;;;;;;;;;1.00;1.00;;;;;13.91;79.40;99879.97;5036049;28;45379;-41
2023/10/22 01:10:13;;;;;;;;;2.00;2.00;;;;;13.95;79.49;99885.78;5036092;28;45518;-42
2023/10/22 01:12:39;;;;;;;;;1.00;1.00;;;;;13.86;79.17;99887.75;5036511;28;45273;-42
2023/10/22 01:15:06;;;;;;;;;3.00;1.00;;;;;13.91;79.11;99901.34;5036413;28;45374;-42
2023/10/22 01:17:32;;;;;;;;;3.67;1.00;;;;;13.89;79.10;99900.69;5036078;28;47199;-42
2023/10/22 01:19:57;;;;;;;;;1.67;1.33;;;;;13.85;78.90;99894.06;5035911;28;45379;-44
2023/10/22 01:22:23;;;;;;;;;1.33;0.00;;;;;13.82;78.93;99907.84;5036216;28;45458;-42
2023/10/22 01:24:48;;;;;;;;;3.00;1.00;;;;;13.84;79.04;99905.78;5036446;28;45243;-45
2023/10/22 01:27:14;;;;;;;;;2.00;1.00;;;;;13.81;78.94;99905.34;5035663;28;45425;-43
2023/10/22 01:29:39;;;;;;;;;3.67;2.00;;;;;13.82;78.93;99920.34;5036064;28;45470;-41
2023/10/22 01:32:05;;;;;;;;;5.00;1.00;;;;;13.81;78.91;99908.00;5036617;28;45428;-42
2023/10/22 01:34:30;;;;;;;;;2.00;1.00;;;;;13.85;78.45;99907.44;5039795;28;45397;-40
2023/10/22 01:36:56;;;;;;;;;5.00;2.00;;;;;13.85;78.63;99909.28;5021721;28;46082;-43
2023/10/22 01:39:22;;;;;;;;;2.00;1.00;;;;;13.84;78.58;99913.00;5021653;28;45340;-42
2023/10/22 01:41:48;;;;;;;;;4.67;2.00;;;;;13.73;78.77;99904.41;5039543;28;45490;-43
2023/10/22 01:44:13;;;;;;;;;3.67;1.00;;;;;13.84;78.71;99923.69;5039273;28;45535;-42
2023/10/22 01:46:39;;;;;;;;;3.67;1.00;;;;;13.84;78.47;99929.03;5021485;28;47437;-43
2023/10/22 01:49:04;;;;;;;;;5.33;1.67;;;;;13.81;78.46;99926.72;5039225;28;45297;-43
2023/10/22 01:51:30;;;;;;;;;2.67;1.00;;;;;13.69;78.50;99905.84;5039390;28;45415;-41
2023/10/22 01:53:55;;;;;;;;;6.67;1.00;;;;;13.82;78.45;99920.34;5039502;28;45281;-41
2023/10/22 01:56:20;;;;;;;;;2.67;2.00;;;;;13.79;78.40;99926.09;5039282;28;46363;-41
2023/10/22 01:58:46;;;;;;;;;5.00;1.00;;;;;13.80;78.08;99939.25;5039143;28;45462;-41
2023/10/22 02:01:11;;;;;;;;;2.67;2.00;;;;;13.79;78.34;99939.47;5039505;28;45435;-44
2023/10/22 02:03:37;;;;;;;;;3.67;2.00;;;;;13.81;78.32;99945.44;5038911;28;45154;-39
2023/10/22 02:06:10;;;;;;;;;4.67;1.67;;;;;13.79;78.01;99942.13;5038996;28;45346;-41
2023/10/22 02:08:36;;;;;;;;;4.00;1.00;;;;;13.81;78.15;99948.09;5038985;28;45366;-40
2023/10/22 02:11:02;;;;;;;;;8.33;2.00;;;;;13.80;78.14;99943.78;5039015;28;45329;-42
2023/10/22 02:13:27;;;;;;;;;2.00;1.33;;;;;13.82;78.00;99952.44;5039360;28;45362;-42
2023/10/22 02:15:52;;;;;;;;;3.00;1.00;;;;;13.82;78.33;99950.63;5038880;28;46027;-41
2023/10/22 02:18:18;;;;;;;;;1.67;1.67;;;;;13.83;77.78;99954.13;5038796;28;48373;-41
2023/10/22 02:20:58;;;;;;;;;3.00;3.00;;;;;13.83;77.92;99951.44;5021660;28;45309;-41
2023/10/22 02:23:24;;;;;;;;;2.00;2.00;;;;;13.72;77.69;99942.88;5039187;28;45785;-41
2023/10/22 02:25:50;;;;;;;;;4.00;2.67;;;;;13.79;77.70;99959.00;5038659;28;47092;-43
2023/10/22 02:28:16;;;;;;;;;5.00;2.33;;;;;13.77;77.53;99968.22;5038729;28;45399;-43
2023/10/22 02:30:42;;;;;;;;;2.00;2.00;;;;;13.77;77.71;99969.03;5038909;28;45378;-43
2023/10/22 02:33:07;;;;;;;;;4.33;2.00;;;;;13.82;77.92;99979.16;5039148;28;45377;-43
2023/10/22 02:35:39;;;;;;;;;2.67;1.67;;;;;13.81;77.90;99983.69;5038278;28;47131;-43
2023/10/22 02:38:05;;;;;;;;;5.67;1.33;;;;;13.82;77.91;99984.50;5037435;28;45569;-42
2023/10/22 02:40:34;;;;;;;;;3.00;1.00;;;;;13.80;77.80;99986.56;5038797;28;45373;-43
2023/10/22 02:42:59;;;;;;;;;1.00;1.00;;;;;13.80;77.92;99991.91;5037993;28;45356;-43
2023/10/22 02:45:25;;;;;;;;;8.00;2.00;;;;;13.80;77.98;99991.91;5037333;28;45977;-42
2023/10/22 02:47:50;;;;;;;;;3.33;1.67;;;;;13.77;77.95;99986.91;5038381;28;45224;-40
2023/10/22 02:50:15;;;;;;;;;2.00;2.00;;;;;13.80;78.07;99997.25;5038595;28;45374;-42
2023/10/22 02:52:41;;;;;;;;;1.67;1.33;;;;;13.79;77.95;99992.94;5038863;28;45419;-43
2023/10/22 02:55:06;;;;;;;;;6.67;1.33;;;;;13.80;78.04;100002.59;5038327;28;45431;-41
2023/10/22 02:57:32;;;;;;;;;4.00;3.67;;;;;13.78;77.70;99997.44;5038169;28;45399;-44
2023/10/22 02:59:57;;;;;;;;;4.67;2.00;;;;;13.77;77.89;99992.25;5038446;28;45443;-43
2023/10/22 03:02:22;;;;;;;;;4.33;2.00;;;;;13.78;77.56;99999.25;5038481;28;45402;-43
2023/10/22 03:04:49;;;;;;;;;5.67;1.33;;;;;13.79;77.65;100006.28;5037939;28;45912;-43
2023/10/22 03:07:14;;;;;;;;;3.67;1.00;;;;;13.79;77.59;100004.44;5019939;28;45455;-43
2023/10/22 03:09:39;;;;;;;;;0.67;0.67;;;;;13.77;77.61;100009.13;5038450;28;45431;-43
2023/10/22 03:12:05;;;;;;;;;3.33;0.67;;;;;13.74;77.51;100009.53;5038359;28;45297;-40
2023/10/22 03:14:30;;;;;;;;;2.00;2.00;;;;;13.71;77.96;100018.72;5037905;28;46151;-42
2023/10/22 03:16:56;;;;;;;;;1.00;1.00;;;;;13.70;77.92;100017.06;5037995;28;47173;-50
2023/10/22 03:19:22;;;;;;;;;2.67;2.67;;;;;13.73;77.97;100026.56;5038075;28;45214;-43
2023/10/22 03:21:48;;;;;;;;;4.67;1.33;;;;;13.59;77.77;100004.16;5037354;28;45295;-42
2023/10/22 03:24:15;;;;;;;;;3.00;1.00;;;;;13.69;78.04;100027.94;5038115;28;45997;-40
2023/10/22 03:26:41;;;;;;;;;1.00;1.00;;;;;13.71;78.11;100031.25;5037860;28;45238;-42
2023/10/22 03:29:06;;;;;;;;;4.33;2.00;;;;;13.69;77.99;100026.13;5038240;28;45423;-43
2023/10/22 03:31:33;;;;;;;;;3.67;1.00;;;;;13.67;78.48;100020.09;5037306;28;45542;-44
2023/10/22 03:33:58;;;;;;;;;2.67;1.33;;;;;13.65;78.76;100030.16;5037503;28;47034;-42
2023/10/22 03:36:24;;;;;;;;;4.00;2.33;;;;;13.65;78.35;100035.50;5037704;28;45437;-43
2023/10/22 03:38:49;;;;;;;;;2.00;1.00;;;;;13.62;78.77;100041.22;5037765;28;45379;-44
2023/10/22 03:41:14;;;;;;;;;3.33;0.00;;;;;13.59;78.74;100040.75;5020026;28;45383;-43
2023/10/22 03:43:40;;;;;;;;;2.00;1.00;;;;;13.47;80.19;100040.38;5019743;28;45596;-44
2023/10/22 03:46:05;;;;;;;;;7.67;3.00;;;;;13.56;79.58;100057.16;5037483;28;45426;-43
2023/10/22 03:48:32;;;;;;;;;2.33;2.00;;;;;13.51;79.93;100060.38;5037740;28;45729;-41
2023/10/22 03:50:57;;;;;;;;;1.00;1.00;;;;;13.47;80.53;100078.59;5019660;28;45342;-43
2023/10/22 03:53:23;;;;;;;;;2.00;1.00;;;;;13.45;80.62;100067.28;5037127;28;45359;-44
2023/10/22 03:55:48;;;;;;;;;1.00;0.00;;;;;13.42;80.36;100070.31;5037248;28;45316;-40
2023/10/22 03:58:16;;;;;;;;;2.00;0.67;;;;;13.47;79.73;100070.59;5037789;28;45449;-43
2023/10/22 04:00:41;;;;;;;;;2.00;0.00;;;;;13.46;79.87;100070.78;5037798;28;45376;-42
2023/10/22 04:03:07;;;;;;;;;3.67;1.00;;;;;13.36;80.58;100067.53;5019225;28;46113;-47
2023/10/22 04:05:33;;;;;;;;;1.00;1.00;;;;;13.45;80.84;100090.50;5037185;28;45444;-40
2023/10/22 04:07:58;;;;;;;;;3.00;1.00;;;;;13.45;80.51;100085.97;5037384;28;45432;-44
2023/10/22 04:10:25;;;;;;;;;2.00;1.00;;;;;13.46;80.34;100090.31;5036735;28;45463;-40
2023/10/22 04:12:50;;;;;;;;;1.67;1.00;;;;;13.44;80.78;100088.81;5037351;28;45391;-43
2023/10/22 04:15:15;;;;;;;;;5.00;1.00;;;;;13.39;80.82;100080.53;5036956;28;45504;-44
2023/10/22 04:17:41;;;;;;;;;1.33;1.33;;;;;13.46;80.44;100097.50;5037422;28;45364;-43
2023/10/22 04:20:07;;;;;;;;;7.00;2.00;;;;;13.50;80.14;100093.44;5037348;28;45459;-43
2023/10/22 04:22:32;;;;;;;;;3.00;2.00;;;;;13.48;80.08;100107.00;5036729;28;45398;-41
2023/10/22 04:24:58;;;;;;;;;1.67;1.67;;;;;13.47;80.69;100104.50;5036754;28;45379;-44
2023/10/22 04:27:23;;;;;;;;;1.00;1.00;;;;;13.45;80.22;100110.03;5036818;28;45315;-40
2023/10/22 04:29:48;;;;;;;;;2.00;2.00;;;;;13.48;80.50;100114.16;5037114;28;45416;-41
2023/10/22 04:32:14;;;;;;;;;1.00;1.00;;;;;13.45;80.49;100114.53;5036896;28;45317;-43
2023/10/22 04:34:40;;;;;;;;;1.00;1.00;;;;;13.45;80.68;100123.38;5036791;28;45277;-43
2023/10/22 04:37:06;;;;;;;;;3.00;1.33;;;;;13.46;80.08;100138.41;5036758;28;45464;-41
2023/10/22 04:39:31;;;;;;;;;3.00;1.33;;;;;13.48;80.42;100130.19;5036816;28;45262;-42
2023/10/22 04:41:57;;;;;;;;;0.33;0.33;;;;;13.48;80.51;100132.88;5036580;28;45488;-43
2023/10/22 04:44:22;;;;;;;;;4.00;1.00;;;;;13.50;80.30;100130.84;5036585;28;45431;-42
2023/10/22 04:46:49;;;;;;;;;1.67;1.67;;;;;13.51;80.63;100139.69;5036422;28;47285;-44
2023/10/22 04:49:14;;;;;;;;;2.67;2.67;;;;;13.51;80.23;100147.72;5037036;28;45555;-42
2023/10/22 04:51:40;;;;;;;;;7.33;2.00;;;;;13.51;80.21;100147.72;5036293;28;45459;-44
2023/10/22 04:54:05;;;;;;;;;0.00;0.00;;;;;13.47;79.95;100142.72;5036677;28;45372;-44
2023/10/22 04:56:32;;;;;;;;;4.33;2.67;;;;;13.41;79.78;100137.28;5036560;28;45377;-42
2023/10/22 04:58:57;;;;;;;;;2.00;1.33;;;;;13.49;79.28;100150.56;5036675;28;45447;-42
2023/10/22 05:01:22;;;;;;;;;4.00;2.00;;;;;13.43;79.59;100145.94;5036191;28;46132;-42
2023/10/22 05:03:48;;;;;;;;;4.33;1.00;;;;;13.47;79.85;100150.75;5031955;28;45464;-42
2023/10/22 05:06:13;;;;;;;;;1.00;0.00;;;;;13.37;80.14;100146.66;5016711;28;45325;-43
2023/10/22 05:08:40;;;;;;;;;2.67;0.67;;;;;13.41;80.13;100154.16;5015641;28;45331;-43
2023/10/22 05:11:08;;;;;;;;;3.00;1.67;;;;;13.41;79.68;100166.69;5016078;28;47215;-43
2023/10/22 05:13:33;;;;;;;;;3.00;1.67;;;;;13.41;79.61;100164.00;5016167;28;45364;-43
2023/10/22 05:15:59;;;;;;;;;2.00;2.00;;;;;13.44;79.81;100185.84;5016430;28;45442;-43
2023/10/22 05:18:27;;;;;;;;;1.00;1.00;;;;;13.45;79.36;100179.50;4998894;28;45510;-45
2023/10/22 05:20:53;;;;;;;;;2.00;1.67;;;;;13.47;79.60;100196.16;5015959;28;46249;-45
2023/10/22 05:23:18;;;;;;;;;8.33;2.00;;;;;13.47;79.45;100190.81;5015905;28;45368;-43
2023/10/22 05:25:43;;;;;;;;;2.33;2.33;;;;;13.49;79.08;100193.34;5016216;28;45341;-43
2023/10/22 05:28:09;;;;;;;;;7.67;2.00;;;;;13.50;79.08;100200.34;5016408;28;45422;-44
2023/10/22 05:30:34;;;;;;;;;3.33;2.00;;;;;13.48;79.06;100205.00;5014504;28;46650;-42
2023/10/22 05:33:01;;;;;;;;;3.00;2.00;;;;;13.47;79.16;100208.69;5016017;28;45744;-45
2023/10/22 05:35:27;;;;;;;;;8.33;0.67;;;;;13.48;78.90;100207.69;5015810;28;45379;-44
2023/10/22 05:37:52;;;;;;;;;4.00;1.00;;;;;13.47;79.50;100212.19;5015130;28;45443;-43
2023/10/22 05:40:17;;;;;;;;;1.67;1.67;;;;;13.52;78.97;100216.16;5015782;28;46008;-44
2023/10/22 05:42:43;;;;;;;;;2.00;0.67;;;;;13.53;78.69;100226.69;5016095;28;45373;-42
2023/10/22 05:45:09;;;;;;;;;3.00;1.67;;;;;13.51;78.81;100230.56;5016144;28;45417;-42
2023/10/22 05:47:35;;;;;;;;;8.33;0.33;;;;;13.50;78.81;100223.56;5016016;28;45896;-42
2023/10/22 05:50:00;;;;;;;;;1.00;1.00;;;;;13.51;78.88;100238.56;5015904;28;46217;-43
2023/10/22 05:52:26;;;;;;;;;4.00;1.00;;;;;13.52;78.83;100238.38;5015659;28;45380;-43
2023/10/22 05:54:52;;;;;;;;;4.00;1.00;;;;;13.51;78.79;100236.72;5015984;28;45361;-41
2023/10/22 05:57:20;;;;;;;;;4.00;1.00;;;;;13.49;78.82;100236.09;5016000;28;45333;-41
2023/10/22 05:59:49;;;;;;;;;2.00;2.00;;;;;13.46;78.65;100241.78;5015357;28;46208;-41
2023/10/22 06:02:14;;;;;;;;;1.00;1.00;;;;;13.47;78.92;100244.25;5015739;28;45440;-40
2023/10/22 06:04:40;;;;;;;;;3.00;1.00;;;;;13.46;79.02;100241.78;5025790;28;45348;-39
2023/10/22 06:07:07;;;;;;;;;2.33;1.00;;;;;13.39;79.33;100238.97;5035493;28;45494;-40
2023/10/22 06:09:34;;;;;;;;;4.00;3.00;;;;;13.41;79.27;100244.97;5035448;28;47264;-40
2023/10/22 06:12:00;;;;;;;;;3.00;1.67;;;;;13.44;79.29;100254.47;5035753;28;45460;-42
2023/10/22 06:14:26;;;;;;;;;6.67;1.00;;;;;13.42;79.50;100245.81;5035697;28;45417;-41
2023/10/22 06:16:51;;;;;;;;;7.67;1.33;;;;;13.44;79.33;100267.81;5035568;28;45237;-42
2023/10/22 06:19:17;;;;;;;;;3.00;1.67;;;;;13.42;79.59;100267.19;5035960;28;53297;-40
2023/10/22 06:21:42;;;;;;;;;4.33;3.00;;;;;13.43;79.62;100263.50;5038440;28;45353;-42
2023/10/22 06:24:08;;;;;;;;;1.33;1.00;;;;;13.45;79.76;100272.19;5038808;28;45378;-41
2023/10/22 06:26:33;;;;;;;;;1.67;1.67;;;;;13.47;79.73;100286.19;5038803;28;45475;-40
2023/10/22 06:28:59;;;;;;;;;5.33;2.00;;;;;13.47;79.77;100284.34;5038489;28;46807;-40
2023/10/22 06:31:25;;;;;;;;;8.00;3.33;;;;;13.44;79.55;100282.03;5038575;28;45500;-41
2023/10/22 06:33:50;;;;;;;;;4.00;2.00;;;;;13.44;79.72;100281.19;5037699;28;45532;-39
2023/10/22 06:36:20;;;;;;;;;6.33;2.33;;;;;13.46;79.66;100288.03;5038811;28;45674;-41
2023/10/22 06:38:47;;;;;;;;;2.00;1.00;;;;;13.49;79.49;100289.53;5038279;28;47150;-42
2023/10/22 06:41:15;;;;;;;;;11.00;2.67;;;;;13.51;79.56;100294.69;5038722;28;45368;-40
2023/10/22 06:43:40;;;;;;;;;3.00;2.00;;;;;13.50;79.71;100296.53;5038614;28;45408;-41
2023/10/22 06:46:06;;;;;;;;;2.67;2.00;;;;;13.53;79.89;100306.88;5038715;28;45430;-40
2023/10/22 06:48:31;;;;;;;;;4.00;1.67;;;;;13.50;79.81;100304.53;5038294;28;46283;-42
2023/10/22 06:50:56;;;;;;;;;1.33;1.33;;;;;13.57;79.45;100318.88;5038247;28;48724;-41
2023/10/22 06:53:22;;;;;;;;;2.67;1.00;;;;;13.59;79.73;100322.19;5038446;28;45323;-40
2023/10/22 06:55:47;;;;;;;;;4.00;1.00;;;;;13.58;79.34;100314.34;5038502;28;45599;-41
2023/10/22 06:58:12;;;;;;;;;1.67;1.00;;;;;13.65;79.63;100334.84;5038426;28;46024;-39
2023/10/22 07:00:38;;;;;;;;;5.00;2.00;;;;;13.66;79.06;100325.00;5038275;28;45356;-40
2023/10/22 07:03:03;;;;;;;;;5.67;3.00;;;;;13.66;79.46;100336.50;5038164;28;45477;-41
2023/10/22 07:05:29;;;;;;;;;3.00;2.00;;;;;13.67;79.73;100337.34;5038503;28;45462;-42
2023/10/22 07:07:54;;;;;;;;;1.00;1.00;;;;;13.72;79.42;100343.00;5037952;28;46260;-41
2023/10/22 07:10:19;;;;;;;;;4.67;2.33;;;;;13.77;79.33;100350.47;5037989;28;50710;-40
2023/10/22 07:12:45;;;;;;;;;4.00;2.00;;;;;13.67;79.11;100348.88;5036974;28;45325;-40
2023/10/22 07:15:12;;;;;;;;;4.33;2.00;;;;;13.78;79.21;100362.81;5038694;28;45346;-42
2023/10/22 07:17:38;;;;;;;;;4.67;2.00;;;;;13.67;78.82;100350.72;5037780;28;47163;-41
2023/10/22 07:20:05;;;;;;;;;3.33;1.67;;;;;13.81;78.92;100362.47;5037906;28;45379;-40
2023/10/22 07:22:30;;;;;;;;;1.00;1.00;;;;;13.77;78.89;100363.84;5037823;28;45352;-40
2023/10/22 07:24:55;;;;;;;;;5.33;2.00;;;;;13.82;78.89;100374.81;5038026;28;45380;-41
2023/10/22 07:27:21;;;;;;;;;7.67;3.00;;;;;13.86;79.29;100374.31;5037922;28;45439;-43
2023/10/22 07:29:46;;;;;;;;;3.33;1.67;;;;;13.90;78.90;100378.28;5037481;28;45349;-39
2023/10/22 07:32:11;;;;;;;;;7.67;1.00;;;;;13.91;78.80;100388.00;5037917;28;45945;-41
2023/10/22 07:34:37;;;;;;;;;5.33;1.00;;;;;13.91;78.68;100400.53;5038194;28;45389;-42
2023/10/22 07:37:02;;;;;;;;;2.33;2.00;;;;;13.90;79.10;100393.50;5037648;28;46261;-41
2023/10/22 07:39:27;;;;;;;;;2.00;2.00;;;;;13.91;78.99;100411.22;5019628;28;45395;-41
2023/10/22 07:41:53;;;;;;;;;3.00;2.00;;;;;13.85;78.95;100406.56;5037616;28;45377;-40
2023/10/22 07:44:18;;;;;;;;;0.33;0.00;;;;;13.88;79.24;100409.72;5037871;28;45780;-41
2023/10/22 07:46:43;;;;;;;;;3.67;3.00;;;;;13.87;78.94;100420.59;5037591;28;46987;-39
2023/10/22 07:49:11;;;;;;;;;9.67;4.00;;;;;13.88;79.04;100427.63;5037369;28;45453;-40
2023/10/22 07:51:36;;;;;;;;;3.00;2.67;;;;;13.87;78.98;100415.25;5037323;28;45404;-42
2023/10/22 07:54:01;;;;;;;;;3.33;2.00;;;;;13.89;79.14;100429.28;5037581;28;45453;-40
2023/10/22 07:56:27;;;;;;;;;5.33;2.67;;;;;13.91;78.90;100432.63;5037147;28;46917;-40
2023/10/22 07:58:52;;;;;;;;;2.00;2.00;;;;;13.82;78.88;100417.59;5037383;28;45344;-40
2023/10/22 08:01:19;;;;;;;;;7.00;2.00;;;;;13.92;78.89;100434.28;5037281;28;45516;-42
2023/10/22 08:03:45;;;;;;;;;5.00;2.00;;;;;13.95;78.82;100445.47;5036280;28;45412;-40
2023/10/22 08:06:10;;;;;;;;;2.33;2.33;;;;;13.96;78.71;100436.41;5037321;28;45386;-41
2023/10/22 08:08:36;;;;;;;;;6.00;1.67;;;;;14.07;78.40;100445.03;5036799;28;45453;-41
2023/10/22 08:11:03;;;;;;;;;5.00;2.00;;;;;14.10;78.01;100447.38;5037437;28;45556;-41
2023/10/22 08:13:29;;;;;;;;;4.33;2.00;;;;;14.07;77.88;100440.53;5037119;28;45408;-41
2023/10/22 08:15:56;;;;;;;;;2.00;2.00;;;;;14.09;77.66;100443.88;5036738;28;45426;-41
2023/10/22 08:18:22;;;;;;;;;3.33;3.00;;;;;14.05;78.08;100429.19;5037105;28;45238;-40
2023/10/22 08:20:47;;;;;;;;;8.67;2.00;;;;;14.20;77.92;100448.81;5037169;28;45411;-39
2023/10/22 08:23:13;;;;;;;;;2.33;2.33;;;;;14.33;77.25;100452.75;5037459;28;45509;-40
2023/10/22 08:25:38;;;;;;;;;3.33;2.67;;;;;14.36;77.00;100444.34;5036925;28;45409;-42
2023/10/22 08:28:04;;;;;;;;;5.00;1.67;;;;;14.43;76.58;100440.78;5018986;28;45430;-41
2023/10/22 08:30:29;;;;;;;;;2.00;2.00;;;;;14.69;76.37;100447.63;5037140;28;45366;-41
2023/10/22 08:32:54;;;;;;;;;4.00;2.33;;;;;14.82;75.88;100461.22;5037070;28;45441;-41
2023/10/22 08:35:21;;;;;;;;;2.00;2.00;;;;;14.90;76.14;100461.16;5018883;28;47400;-44
2023/10/22 08:37:46;;;;;;;;;1.00;1.00;;;;;14.96;75.75;100455.09;5036795;28;45782;-40
2023/10/22 08:40:12;;;;;;;;;4.00;2.00;;;;;14.91;75.30;100472.69;5037015;28;45479;-40
2023/10/22 08:42:38;;;;;;;;;5.00;1.00;;;;;14.71;75.94;100462.50;5036050;28;45483;-41
2023/10/22 08:45:05;;;;;;;;;2.00;2.00;;;;;14.77;76.35;100477.00;5036577;28;46247;-42
2023/10/22 08:47:31;;;;;;;;;8.00;3.33;;;;;14.71;76.30;100483.09;5018034;28;45563;-40
2023/10/22 08:49:56;;;;;;;;;8.00;2.33;;;;;14.70;76.84;100484.91;5036748;28;45328;-41
2023/10/22 08:52:23;;;;;;;;;5.33;1.33;;;;;14.66;76.60;100483.66;5036555;28;45355;-40
2023/10/22 08:54:48;;;;;;;;;3.00;2.67;;;;;14.70;76.71;100492.13;5036307;28;46411;-40
2023/10/22 08:57:16;;;;;;;;;2.00;2.00;;;;;14.72;76.83;100493.63;5036286;28;45280;-41
2023/10/22 08:59:42;;;;;;;;;3.00;1.00;;;;;14.71;76.59;100499.16;5036208;28;45511;-41
2023/10/22 09:02:10;;;;;;;;;8.67;2.00;;;;;14.70;76.27;100502.84;5018289;28;45567;-42
2023/10/22 09:04:36;;;;;;;;;1.67;1.67;;;;;14.62;76.42;100509.09;5026319;28;45488;-41
2023/10/22 09:07:01;;;;;;;;;1.00;1.00;;;;;14.62;76.41;100514.47;5016167;28;45271;-43
2023/10/22 09:09:34;;;;;;;;;3.67;1.00;;;;;14.62;76.60;100517.13;5016108;28;45513;-43
2023/10/22 09:11:59;;;;;;;;;2.00;2.00;;;;;14.65;76.83;100522.13;5016321;28;45284;-39
2023/10/22 09:14:26;;;;;;;;;3.00;1.00;;;;;14.65;76.14;100521.28;5016134;28;46052;-41
2023/10/22 09:16:51;;;;;;;;;3.00;3.00;;;;;14.67;76.30;100524.63;5015984;28;45297;-42
2023/10/22 09:19:39;;;;;;;;;1.00;1.00;;;;;14.80;76.34;100527.53;5015611;28;45239;-42
2023/10/22 09:22:05;;;;;;;;;3.00;2.00;;;;;14.90;75.29;100529.97;5015921;28;45409;-40
2023/10/22 09:24:32;;;;;;;;;3.33;2.00;;;;;15.08;75.06;100529.63;5015616;28;46988;-41
2023/10/22 09:26:57;;;;;;;;;4.00;1.33;;;;;15.22;74.31;100524.31;5015723;28;45544;-40
2023/10/22 09:29:24;;;;;;;;;5.33;2.00;;;;;15.39;73.60;100530.34;5015907;28;45400;-40
2023/10/22 09:31:50;;;;;;;;;3.00;2.00;;;;;15.45;73.70;100534.13;5015852;28;45322;-41
2023/10/22 09:34:32;;;;;;;;;5.67;3.00;;;;;15.52;73.40;100529.72;5015734;28;45651;-40
2023/10/22 09:36:59;;;;;;;;;7.67;3.00;;;;;15.80;72.15;100526.41;5015671;28;45344;-41
2023/10/22 09:39:37;;;;;;;;;3.00;3.00;;;;;16.08;72.01;100523.88;5015748;28;45326;-41
2023/10/22 09:42:04;;;;;;;;;2.33;1.00;;;;;16.41;70.66;100527.78;5016260;28;45407;-40
2023/10/22 09:44:33;;;;;;;;;3.00;1.67;;;;;17.18;70.37;100529.75;5015504;28;45642;-42
2023/10/22 09:47:01;;;;;;;;;1.67;1.67;;;;;18.02;65.33;100526.16;5015777;28;45418;-43
2023/10/22 09:49:29;;;;;;;;;3.33;1.00;;;;;18.77;65.91;100521.63;5015891;28;45354;-42
2023/10/22 09:51:58;;;;;;;;;4.00;3.00;;;;;20.86;58.71;100524.13;5016119;28;45306;-41
2023/10/22 09:54:34;;;;;;;;;0.75;0.75;;;;;21.85;55.48;100505.28;5017851;28;46070;-41
2023/10/22 09:57:08;;;;;;;;;5.00;3.00;;;;;21.46;55.04;100523.63;5019198;28;45482;-41
2023/10/22 09:59:35;;;;;;;;;2.50;1.25;;;;;21.34;55.20;100523.53;5018810;28;45419;-43
2023/10/22 10:02:00;;;;;;;;;2.00;1.75;;;;;21.46;54.28;100514.69;5018424;28;45665;-41
2023/10/22 10:04:26;;;;;;;;;1.00;0.75;;;;;21.86;53.12;100509.66;5027271;28;45999;-43
2023/10/22 10:06:55;;;;;;;;;1.25;1.25;;;;;23.59;51.85;100526.84;5039140;28;45673;-41
2023/10/22 10:09:23;;;;;;;;;2.75;2.75;;;;;23.75;51.66;100531.59;5020657;28;45443;-41
2023/10/22 10:11:51;;;;;;;;;3.25;2.00;;;;;23.53;48.81;100525.09;5039321;28;45405;-41
2023/10/22 10:14:46;;;;;;;;;4.40;2.00;;;;;22.88;49.05;100545.81;5038846;28;46082;-40
2023/10/22 10:17:14;;;;;;;;;3.60;2.20;;;;;23.72;49.69;100536.69;4976851;28;45382;-41
2023/10/22 10:19:39;;;;;;;;;2.60;1.20;;;;;22.91;48.61;100542.63;4977447;28;45509;-40
2023/10/22 10:22:05;;;;;;;;;6.00;2.50;;;;;22.46;49.29;100544.97;4977336;28;45311;-40
2023/10/22 10:24:32;;;;;;;;;4.50;3.00;;;;;23.06;49.39;100547.63;4977052;28;45781;-40
2023/10/22 10:26:57;;;;;;;;;4.00;3.00;;;;;22.60;49.01;100546.44;4975675;28;45460;-41
2023/10/22 10:29:24;;;;;;;;;3.75;2.00;;;;;23.42;47.96;100541.16;4977163;28;45294;-41
2023/10/22 10:31:51;;;;;;;;;1.60;1.60;;;;;23.75;46.34;100542.47;4977609;28;45363;-40
2023/10/22 10:34:40;;;;;;;;;0.20;0.20;;;;;23.51;47.55;100538.94;4976857;28;45976;-40
2023/10/22 10:37:31;;;;;;;;;0.60;0.60;;;;;24.09;47.86;100546.16;4976884;28;45393;-41
2023/10/22 10:39:57;;;;;;;;;2.00;2.00;;;;;24.50;43.72;100541.56;4974850;28;45653;-41
2023/10/22 10:42:28;;;;;;;;;2.00;0.50;;;;;24.95;43.02;100539.91;4977307;28;45279;-42
2023/10/22 10:45:02;;;;;;;;;2.40;2.40;;;;;24.74;42.43;100541.44;4977032;28;46234;-41
2023/10/22 10:47:32;;;;;;;;;3.40;2.60;;;;;24.35;42.76;100543.94;4976596;28;45444;-41
2023/10/22 10:50:11;;;;;;;;;1.00;1.00;;;;;24.94;42.90;100552.66;4977054;28;45486;-43
2023/10/22 10:52:48;;;;;;;;;0.60;0.60;;;;;25.24;44.46;100546.09;4977384;28;45455;-41
2023/10/22 10:55:19;;;;;;;;;3.60;0.00;;;;;25.27;42.74;100548.31;5036302;28;46928;-41
2023/10/22 10:57:48;;;;;;;;;1.00;1.00;;;;;24.91;41.74;100547.72;5038497;28;45490;-42
2023/10/22 11:00:21;;;;;;;;;1.80;1.00;;;;;24.92;41.50;100549.38;5038595;28;45530;-41
2023/10/22 11:02:50;;;;;;;;;3.20;0.80;;;;;25.12;42.02;100548.94;5038671;28;45413;-41
2023/10/22 11:05:29;;;;;;;;;0.80;0.80;;;;;25.52;41.28;100553.34;5037299;28;46370;-41
2023/10/22 11:07:55;;;;;;;;;1.40;1.20;;;;;25.55;42.99;100548.22;5038163;28;45422;-42
2023/10/22 11:10:21;;;;;;;;;3.00;1.40;;;;;25.30;40.17;100553.28;5038118;28;45368;-41
2023/10/22 11:12:46;;;;;;;;;2.00;1.75;;;;;25.13;39.80;100540.50;5038678;28;45602;-42
2023/10/22 11:15:13;;;;;;;;;1.00;1.00;;;;;25.09;39.23;100546.69;5037504;28;46110;-40
2023/10/22 11:17:41;;;;;;;;;2.40;0.20;;;;;25.18;39.13;100538.94;5038070;28;45363;-40
2023/10/22 11:20:07;;;;;;;;;2.40;2.00;;;;;25.22;39.64;100542.81;5038239;28;45348;-40
2023/10/22 11:22:35;;;;;;;;;3.80;0.80;;;;;25.23;42.14;100531.66;5037958;28;45359;-42
2023/10/22 11:25:03;;;;;;;;;0.00;0.00;;;;;25.44;39.92;100540.97;5037698;28;47027;-40